1998 Tropical Cyclone CATHY (1998357S11101)


IBTrACS version v04r00. Visit IBTrACS website for data access.
Please direct all questions to the IBTrACS Q and A forum

Storm track - Intensity - Wind Radii - Intensity Data - Source Data - All data

Summary Information

Satellite image near maximum intensity
Storm ID 1998357S11101
Start Dec 22 19Z
Max Intensity 60 kt (Dec 25 19Z), 975 mb (Dec 25 19Z)
End Dec 30 18Z
ATCF IDs ,SH101999
Track status Best track data.

Storm track plot

Map of storm track

Intensity plots

Map of storm track

Radial wind information

Map of storm track

Position and Intensity Table

BASIN ISO_TIME_________ NATURE LAT LON WMO WIND WMO PRES USA WIND BOM WIND BOM PRES NEUMANN WIND
degrees north degrees east kts mb kts kts mb kts
SI 1998-12-22 19:00:00 NR -11.10 100.60 25 1002 25 1002
SI 21:00:00 NR -11.24 100.59 25 1002
SI 22:00:00 NR -11.30 100.60 25 1002 25 1002
SI 1998-12-23 00:00:00 NR -11.43 100.67 25 1002
SI 01:00:00 NR -11.50 100.70 25 1002 25 1002
SI 03:00:00 NR -11.69 100.70 25 1002
SI 04:00:00 NR -11.80 100.70 25 1002 25 1002
SI 06:00:00 NR -12.06 100.77 25 1002
SI 07:00:00 NR -12.20 100.80 25 1002 25 1002
SI 09:00:00 NR -12.47 100.80 25 1000
SI 10:00:00 NR -12.60 100.80 25 1000 25 1000
SI 12:00:00 TS -12.68 100.71 20 25 1000 20
SI 13:00:00 TS -12.74 100.64 25 1000 20 25 1000 20
SI 15:00:00 TS -12.98 100.60 22 25 1000 22
SI 16:00:00 TS -13.12 100.56 25 1000 23 25 1000 23
SI 18:00:00 TS -13.45 100.56 25 25 1000 25
SI 19:00:00 TS -13.63 100.55 25 1000 25 25 1000 25
SI 21:00:00 TS -13.99 100.52 25 25 1000 25
SI 22:00:00 TS -14.18 100.49 25 1000 25 25 1000 25
SI 1998-12-24 00:00:00 TS -14.53 100.39 25 28 998 25
SI 01:00:00 TS -14.70 100.34 30 998 25 30 998 25
SI 03:00:00 TS -14.99 100.22 27 33 996 27
SI 04:00:00 TS -15.11 100.17 35 995 28 35 995 28
SI 06:00:00 TS -15.31 100.03 30 35 995 30
SI 07:00:00 TS -15.39 99.98 35 995 30 35 995 30
SI 09:00:00 TS -15.51 99.89 30 38 991 30
SI 10:00:00 TS -15.56 99.85 40 990 30 40 990 30
SI 12:00:00 TS -15.66 99.76 30 40 990 30
SI 13:00:00 TS -15.71 99.70 40 990 30 40 990 30
SI 15:00:00 TS -15.83 99.57 30 40 990 30
SI 16:00:00 TS -15.88 99.50 40 990 30 40 990 30
SI 18:00:00 TS -15.97 99.34 30 46 986 30
SI 19:00:00 TS -16.01 99.25 50 985 30 50 985 30
SI 21:00:00 TS -16.08 99.07 32 50 985 32
SI 22:00:00 TS -16.11 98.98 50 985 33 50 985 33
SI 1998-12-25 00:00:00 TS -16.16 98.80 35 50 985 35
SI 01:00:00 TS -16.19 98.71 50 985 35 50 985 35
SI 03:00:00 TS -16.28 98.51 35 53 981 35
SI 04:00:00 TS -16.33 98.42 55 980 35 55 980 35
SI 06:00:00 TS -16.41 98.25 35 55 980 35
SI 07:00:00 TS -16.45 98.17 55 980 35 55 980 35
SI 09:00:00 TS -16.52 98.01 35 55 980 35
SI 10:00:00 TS -16.55 97.91 55 980 35 55 980 35
SI 12:00:00 TS -16.61 97.70 35 55 980 35
SI 13:00:00 TS -16.64 97.59 55 980 35 55 980 35
SI 15:00:00 TS -16.66 97.33 35 55 980 35
SI 16:00:00 TS -16.67 97.19 55 980 35 55 980 35
SI 18:00:00 TS -16.67 96.91 35 58 976 35
SI 19:00:00 TS -16.67 96.77 60 975 35 60 975 35
SI 21:00:00 TS -16.67 96.47 35 60 975 35
SI 22:00:00 TS -16.67 96.32 60 975 35 60 975 35
SI 1998-12-26 00:00:00 TS -16.64 96.04 35 60 975 35
SI 01:00:00 TS -16.63 95.92 60 975 35 60 975 35
SI 03:00:00 TS -16.63 95.69 35 60 975 35
SI 04:00:00 TS -16.63 95.59 60 975 35 60 975 35
SI 06:00:00 TS -16.64 95.40 35 60 975 35
SI 07:00:00 TS -16.63 95.30 60 975 35 60 975 35
SI 09:00:00 TS -16.61 95.09 37 56 978 37
SI 10:00:00 TS -16.60 94.99 55 980 38 55 980 38
SI 12:00:00 TS -16.60 94.80 40 55 980 40
SI 13:00:00 TS -16.60 94.71 55 980 40 55 980 40
SI 15:00:00 TS -16.58 94.55 40 55 980 40
SI 16:00:00 TS -16.57 94.47 55 980 40 55 980 40
SI 18:00:00 TS -16.54 94.32 40 51 983 40
SI 19:00:00 TS -16.53 94.24 50 985 40 50 985 40
SI 21:00:00 TS -16.49 94.07 40 43 988 40
SI 22:00:00 TS -16.46 93.98 40 990 40 40 990 40
SI 1998-12-27 00:00:00 TS -16.43 93.80 40 40 991 40
SI 01:00:00 TS -16.41 93.71 40 992 40 40 992 40
SI 03:00:00 TS -16.35 93.53 40 36 993 40
SI 04:00:00 TS -16.31 93.44 35 994 40 35 994 40
SI 06:00:00 TS -16.27 93.27 40 31 995 40
SI 07:00:00 TS -16.25 93.18 30 996 39 30 996 39
SI 09:00:00 TS -16.18 93.01 37 30 997 37
SI 10:00:00 TS -16.15 92.92 30 998 36 30 998 36
SI 12:00:00 TS -16.10 92.74 35 26 999 35
SI 13:00:00 TS -16.07 92.65 25 1000 35 25 1000 35
SI 15:00:00 TS -15.97 92.45 35 25 1000 35
SI 16:00:00 TS -15.92 92.33 25 1000 35 25 1000 35
SI 18:00:00 TS -15.87 92.03 35 25 1001 35
SI 19:00:00 TS -15.86 91.87 25 1002 33 25 1002 33
SI 21:00:00 TS -15.84 91.53 30 25 1002 30
SI 22:00:00 TS -15.83 91.35 25 1002 28 25 1002 28
SI 1998-12-28 00:00:00 TS -15.83 90.93 25 21 1003 25
SI 01:00:00 TS -15.82 90.72 20 1004 25 20 1004 25
SI 03:00:00 TS -15.76 90.26 25 20 1004 25
SI 04:00:00 TS -15.72 90.03 20 1004 25 20 1004 25
SI 06:00:00 TS -15.60 89.60 25 25
SI 09:00:00 TS -15.41 89.24 25 25
SI 12:00:00 TS -15.20 89.00 25 25
SI 15:00:00 TS -15.04 88.70 25 25
SI 18:00:00 TS -14.90 88.40 25 25
SI 21:00:00 TS -14.73 88.09 25 25
SI 1998-12-29 00:00:00 TS -14.60 87.80 25 25
SI 03:00:00 TS -14.56 87.57 25 25
SI 06:00:00 TS -14.50 87.30 25 25
SI 09:00:00 TS -14.33 86.92 25 25
SI 12:00:00 TS -14.10 86.50 25 25
SI 15:00:00 NR -13.90 86.14 25
SI 18:00:00 NR -13.70 85.80 25
SI 21:00:00 NR -13.50 85.49 25
SI 1998-12-30 00:00:00 NR -13.30 85.20 25
SI 03:00:00 NR -13.08 84.89 25
SI 06:00:00 NR -12.90 84.60 25
SI 09:00:00 NR -12.78 84.36 25
SI 12:00:00 NR -12.70 84.10 25
SI 15:00:00 NR -12.61 83.77 25
SI 18:00:00 NR -12.50 83.40 25

Source Information

Agency Information
USA bsh101999.txt
TOKYO
CMA
HKO
NEWDELHI
REUNION
BOM IDCKMSTM0S.csv:Line=20016:CATHY
NADI
WELLINGTON
DS824
TD9636
TD9635
NEUMANN tracks.sh:Storm=1149:CATHY:BSH101999:JTWC
MLC

All available IBTrACS Data

SEASON BASIN SUBBASIN ISO_TIME_________ NATURE LAT LON WMO WIND WMO PRES WMO AGENCY DIST2LAND LANDFALL IFLAG USA AGENCY USA ATCF_ID USA LAT USA LON USA WIND USA SSHS BOM LAT BOM LON BOM TYPE BOM WIND BOM PRES BOM CI BOM ROCI BOM POS_METHOD BOM PRES_METHOD NEUMANN LAT NEUMANN LON NEUMANN CLASS NEUMANN WIND STORM SPEED STORM DIR
Year degrees north degrees east kts mb km km degrees north degrees east kts 1 degrees north degrees east kts mb 1 nmile degrees north degrees east kts kts degrees
1999 SI WA 1998-12-22 19:00:00 NR -11.10 100.60 25 1002 bom 698 698 ______O_______ -1 -11.10 100.60 20 25 1002 1.50 215 3 5 4 188
1999 SI WA 21:00:00 NR -11.24 100.59 706 706 ______P_______ -1 -11.24 100.59 20 25 1002 215 4 172
1999 SI WA 22:00:00 NR -11.30 100.60 25 1002 bom 713 713 ______O_______ -1 -11.30 100.60 20 25 1002 1.50 215 3 5 4 157
1999 SI WA 1998-12-23 00:00:00 NR -11.43 100.67 714 714 ______P_______ -1 -11.43 100.67 20 25 1002 215 4 153
1999 SI WA 01:00:00 NR -11.50 100.70 25 1002 bom 722 722 ______O_______ -1 -11.50 100.70 20 25 1002 1.50 215 3 5 5 174
1999 SI WA 03:00:00 NR -11.69 100.70 738 738 ______P_______ -1 -11.69 100.70 20 25 1002 215 6 0
1999 SI WA 04:00:00 NR -11.80 100.70 25 1002 bom 746 746 ______O_______ -1 -11.80 100.70 20 25 1002 1.50 215 3 5 8 169
1999 SI WA 06:00:00 NR -12.06 100.77 765 765 ______P_______ -1 -12.06 100.77 20 25 1002 215 8 167
1999 SI WA 07:00:00 NR -12.20 100.80 25 1002 bom 773 773 ______O_______ -1 -12.20 100.80 20 25 1002 1.50 215 3 5 8 0
1999 SI WA 09:00:00 NR -12.47 100.80 800 800 ______P_______ -1 -12.47 100.80 20 25 1000 215 8 0
1999 SI WA 10:00:00 NR -12.60 100.80 25 1000 bom 809 809 ______O_______ -1 -12.60 100.80 20 25 1000 2.00 215 3 5 5 202
1999 SI WA 12:00:00 TS -12.68 100.71 824 824 O_____P_____O_ jtwc_sh SH101999 -12.30 100.40 20 -1 -12.87 100.86 20 25 1000 215 -12.30 100.40 TC 20 4 227
1999 SI WA 13:00:00 TS -12.74 100.64 25 1000 bom 831 831 P_____O_____P_ SH101999 -12.48 100.39 20 -1 -13.00 100.90 20 25 1000 2.00 215 3 5 -12.48 100.39 TC 20 6 199
1999 SI WA 15:00:00 TS -12.98 100.60 858 858 P_____P_____P_ SH101999 -12.84 100.36 22 -1 -13.20 100.97 20 25 1000 215 -12.84 100.36 TC 22 8 191
1999 SI WA 16:00:00 TS -13.12 100.56 25 1000 bom 867 867 P_____O_____P_ SH101999 -13.02 100.34 23 -1 -13.30 101.00 20 25 1000 2.00 215 3 5 -13.02 100.34 TC 23 9 185
1999 SI WA 18:00:00 TS -13.45 100.56 903 903 O_____P_____O_ jtwc_sh SH101999 -13.40 100.30 25 -1 -13.55 101.07 20 25 1000 215 -13.40 100.30 TC 25 10 0
1999 SI WA 19:00:00 TS -13.63 100.55 25 1000 bom 913 913 P_____O_____P_ SH101999 -13.59 100.28 25 -1 -13.70 101.10 20 25 1000 2.00 215 3 5 -13.59 100.28 TC 25 11 185
1999 SI WA 21:00:00 TS -13.99 100.52 956 956 P_____P_____P_ SH101999 -13.98 100.22 25 -1 -14.02 101.12 20 25 1000 215 -13.98 100.22 TC 25 11 185
1999 SI WA 22:00:00 TS -14.18 100.49 25 1000 bom 975 975 P_____O_____P_ SH101999 -14.16 100.18 25 -1 -14.20 101.10 20 25 1000 2.00 215 3 5 -14.16 100.18 TC 25 11 192
1999 SI WA 1998-12-24 00:00:00 TS -14.53 100.39 1009 1009 O_____P_____O_ jtwc_sh SH101999 -14.50 100.10 25 -1 -14.60 100.98 20 28 998 215 -14.50 100.10 TC 25 11 196
1999 SI WA 01:00:00 TS -14.70 100.34 30 998 bom 1034 1034 P_____O_____P_ SH101999 -14.65 100.05 25 -1 -14.80 100.90 20 30 998 2.50 215 3 5 -14.65 100.05 TC 25 10 200
1999 SI WA 03:00:00 TS -14.99 100.22 1068 1068 P_____P_____P_ SH101999 -14.90 99.95 27 -1 -15.15 100.77 20 33 996 215 -14.90 99.95 TC 27 9 202
1999 SI WA 04:00:00 TS -15.11 100.17 35 995 bom 1077 1077 P_____O_____P_ SH101999 -15.01 99.90 28 -1 -15.30 100.70 30 35 995 3.00 215 3 5 -15.01 99.90 TC 28 7 210
1999 SI WA 06:00:00 TS -15.31 100.03 1108 1108 O_____P_____O_ jtwc_sh SH101999 -15.20 99.80 30 -1 -15.53 100.50 30 35 995 215 -15.20 99.80 TC 30 7 213
1999 SI WA 07:00:00 TS -15.39 99.98 35 995 bom 1117 1117 P_____O_____P_ SH101999 -15.28 99.77 30 -1 -15.60 100.40 30 35 995 3.00 215 3 5 -15.28 99.77 TC 30 5 214
1999 SI WA 09:00:00 TS -15.51 99.89 1132 1132 P_____P_____P_ SH101999 -15.42 99.71 30 -1 -15.68 100.26 30 38 991 215 -15.42 99.71 TC 30 4 216
1999 SI WA 10:00:00 TS -15.56 99.85 40 990 bom 1142 1142 P_____O_____P_ SH101999 -15.48 99.68 30 -1 -15.70 100.20 30 40 990 3.00 215 3 5 -15.48 99.68 TC 30 4 222
1999 SI WA 12:00:00 TS -15.66 99.76 1157 1157 O_____P_____O_ jtwc_sh SH101999 -15.60 99.60 30 -1 -15.77 100.07 30 40 990 215 -15.60 99.60 TC 30 4 223
1999 SI WA 13:00:00 TS -15.71 99.70 40 990 bom 1163 1163 P_____O_____P_ SH101999 -15.67 99.55 30 -1 -15.80 100.00 30 40 990 3.00 215 3 5 -15.67 99.55 TC 30 5 225
1999 SI WA 15:00:00 TS -15.83 99.57 1178 1178 P_____P_____P_ SH101999 -15.81 99.42 30 -1 -15.87 99.87 30 40 990 250 -15.81 99.42 TC 30 5 228
1999 SI WA 16:00:00 TS -15.88 99.50 40 990 bom 1193 1193 P_____O_____P_ SH101999 -15.87 99.35 30 -1 -15.90 99.80 30 40 990 3.00 269 3 5 -15.87 99.35 TC 30 5 239
1999 SI WA 18:00:00 TS -15.97 99.34 1214 1214 O_____P_____O_ jtwc_sh SH101999 -16.00 99.20 30 -1 -15.91 99.61 30 46 986 269 -16.00 99.20 TC 30 5 243
1999 SI WA 19:00:00 TS -16.01 99.25 50 985 bom 1220 1220 P_____O_____P_ SH101999 -16.06 99.12 30 -1 -15.90 99.50 30 50 985 3.50 269 3 5 -16.06 99.12 TC 30 6 247
1999 SI WA 21:00:00 TS -16.08 99.07 1235 1235 P_____P_____P_ SH101999 -16.16 98.96 32 -1 -15.90 99.30 30 50 985 269 -16.16 98.96 TC 32 6 248
1999 SI WA 22:00:00 TS -16.11 98.98 50 985 bom 1241 1241 P_____O_____P_ SH101999 -16.21 98.87 33 -1 -15.90 99.20 30 50 985 3.50 269 3 5 -16.21 98.87 TC 33 5 252
1999 SI WA 1998-12-25 00:00:00 TS -16.16 98.80 1262 1262 O_____P_____O_ jtwc_sh SH101999 -16.30 98.70 35 0 -15.88 99.01 30 50 985 269 -16.30 98.70 TC 35 5 252
1999 SI WA 01:00:00 TS -16.19 98.71 50 985 bom 1268 1268 P_____O_____P_ SH101999 -16.34 98.62 35 0 -15.90 98.90 30 50 985 3.50 269 3 5 -16.34 98.62 TC 35 6 246
1999 SI WA 03:00:00 TS -16.28 98.51 1289 1289 P_____P_____P_ SH101999 -16.41 98.46 35 0 -16.02 98.62 30 53 981 269 -16.41 98.46 TC 35 6 244
1999 SI WA 04:00:00 TS -16.33 98.42 55 980 bom 1296 1296 P_____O_____P_ SH101999 -16.45 98.37 35 0 -16.10 98.50 30 55 980 4.00 269 3 5 -16.45 98.37 TC 35 6 243
1999 SI WA 06:00:00 TS -16.41 98.25 1311 1311 O_____P_____O_ jtwc_sh SH101999 -16.50 98.20 35 0 -16.23 98.36 30 55 980 269 -16.50 98.20 TC 35 5 243
1999 SI WA 07:00:00 TS -16.45 98.17 55 980 bom 1317 1317 P_____O_____P_ SH101999 -16.52 98.11 35 0 -16.30 98.30 30 55 980 4.00 269 3 5 -16.52 98.11 TC 35 5 245
1999 SI WA 09:00:00 TS -16.52 98.01 1339 1339 P_____P_____P_ SH101999 -16.56 97.92 35 0 -16.43 98.17 30 55 980 269 -16.56 97.92 TC 35 5 248
1999 SI WA 10:00:00 TS -16.55 97.91 55 980 bom 1354 1354 P_____O_____P_ SH101999 -16.58 97.82 35 0 -16.50 98.10 30 55 980 4.00 269 3 5 -16.58 97.82 TC 35 6 252
1999 SI WA 12:00:00 TS -16.61 97.70 1367 1367 O_____P_____O_ jtwc_sh SH101999 -16.60 97.60 35 0 -16.64 97.91 30 55 980 304 -16.60 97.60 TC 35 6 255
1999 SI WA 13:00:00 TS -16.64 97.59 55 980 bom 1374 1374 P_____O_____P_ SH101999 -16.61 97.48 35 0 -16.70 97.80 30 55 980 4.00 323 3 5 -16.61 97.48 TC 35 7 262
1999 SI WA 15:00:00 TS -16.66 97.33 1402 1402 P_____P_____P_ SH101999 -16.61 97.22 35 0 -16.78 97.54 30 55 980 323 -16.61 97.22 TC 35 8 265
1999 SI WA 16:00:00 TS -16.67 97.19 55 980 bom 1409 1409 P_____O_____P_ SH101999 -16.61 97.09 35 0 -16.80 97.40 30 55 980 4.00 323 3 5 -16.61 97.09 TC 35 8 269
1999 SI WA 18:00:00 TS -16.67 96.91 1429 1429 O_____P_____O_ jtwc_sh SH101999 -16.60 96.80 35 0 -16.81 97.13 30 58 976 323 -16.60 96.80 TC 35 8 271
1999 SI WA 19:00:00 TS -16.67 96.77 60 975 bom 1436 1436 P_____O_____P_ SH101999 -16.60 96.65 35 0 -16.80 97.00 30 60 975 4.00 323 3 5 -16.60 96.65 TC 35 9 270
1999 SI WA 21:00:00 TS -16.67 96.47 1457 1457 P_____P_____P_ SH101999 -16.60 96.34 35 0 -16.81 96.73 30 60 975 323 -16.60 96.34 TC 35 9 270
1999 SI WA 22:00:00 TS -16.67 96.32 60 975 bom 1471 1471 P_____O_____P_ SH101999 -16.60 96.18 35 0 -16.80 96.60 30 60 975 4.00 323 3 5 -16.60 96.18 TC 35 8 274
1999 SI WA 1998-12-26 00:00:00 TS -16.64 96.04 1485 1485 O_____P_____O_ jtwc_sh SH101999 -16.60 95.90 35 0 -16.73 96.33 30 60 975 287 -16.60 95.90 TC 35 8 275
1999 SI WA 01:00:00 TS -16.63 95.92 60 975 bom 1492 1492 P_____O_____P_ SH101999 -16.60 95.78 35 0 -16.70 96.20 30 60 975 4.00 269 3 5 -16.60 95.78 TC 35 7 272
1999 SI WA 03:00:00 TS -16.63 95.69 1507 1507 P_____P_____P_ SH101999 -16.60 95.58 35 0 -16.69 95.93 30 60 975 269 -16.60 95.58 TC 35 6 270
1999 SI WA 04:00:00 TS -16.63 95.59 60 975 bom 1515 1515 P_____O_____P_ SH101999 -16.60 95.48 35 0 -16.70 95.80 30 60 975 4.00 269 3 5 -16.60 95.48 TC 35 6 269
1999 SI WA 06:00:00 TS -16.64 95.40 1530 1530 O_____P_____O_ jtwc_sh SH101999 -16.60 95.30 35 0 -16.71 95.59 30 60 975 269 -16.60 95.30 TC 35 6 270
1999 SI WA 07:00:00 TS -16.63 95.30 60 975 bom 1537 1537 P_____O_____P_ SH101999 -16.60 95.20 35 0 -16.70 95.50 30 60 975 4.00 269 3 5 -16.60 95.20 TC 35 6 275
1999 SI WA 09:00:00 TS -16.61 95.09 1553 1553 P_____P_____P_ SH101999 -16.60 94.99 37 0 -16.63 95.30 30 56 978 269 -16.60 94.99 TC 37 6 277
1999 SI WA 10:00:00 TS -16.60 94.99 55 980 bom 1560 1560 P_____O_____P_ SH101999 -16.60 94.89 38 0 -16.60 95.20 30 55 980 4.00 269 3 5 -16.60 94.89 TC 38 6 272
1999 SI WA 12:00:00 TS -16.60 94.80 1576 1576 O_____P_____O_ jtwc_sh SH101999 -16.60 94.70 40 0 -16.60 94.99 30 55 980 304 -16.60 94.70 TC 40 6 270
1999 SI WA 13:00:00 TS -16.60 94.71 55 980 bom 1584 1584 P_____O_____P_ SH101999 -16.60 94.61 40 0 -16.60 94.90 30 55 980 4.00 323 3 5 -16.60 94.61 TC 40 5 274
1999 SI WA 15:00:00 TS -16.58 94.55 1599 1599 P_____P_____P_ SH101999 -16.61 94.44 40 0 -16.54 94.76 30 55 980 323 -16.61 94.44 TC 40 5 278
1999 SI WA 16:00:00 TS -16.57 94.47 55 980 bom 1599 1599 P_____O_____P_ SH101999 -16.61 94.36 40 0 -16.50 94.70 30 55 980 4.00 323 3 5 -16.61 94.36 TC 40 4 281
1999 SI WA 18:00:00 TS -16.54 94.32 1608 1608 O_____P_____O_ jtwc_sh SH101999 -16.60 94.20 40 0 -16.43 94.57 30 51 983 323 -16.60 94.20 TC 40 4 281
1999 SI WA 19:00:00 TS -16.53 94.24 50 985 bom 1616 1616 P_____O_____P_ SH101999 -16.59 94.12 40 0 -16.40 94.50 30 50 985 3.50 323 3 5 -16.59 94.12 TC 40 5 284
1999 SI WA 21:00:00 TS -16.49 94.07 1624 1624 P_____P_____P_ SH101999 -16.56 93.95 40 0 -16.33 94.31 30 43 988 323 -16.56 93.95 TC 40 5 284
1999 SI WA 22:00:00 TS -16.46 93.98 40 990 bom 1632 1632 P_____O_____P_ SH101999 -16.55 93.87 40 0 -16.30 94.20 30 40 990 3.00 323 3 5 -16.55 93.87 TC 40 5 281
1999 SI WA 1998-12-27 00:00:00 TS -16.43 93.80 1641 1641 O_____P_____O_ jtwc_sh SH101999 -16.50 93.70 40 0 -16.30 94.00 30 40 991 323 -16.50 93.70 TC 40 5 281
1999 SI WA 01:00:00 TS -16.41 93.71 40 992 bom 1650 1650 P_____O_____P_ SH101999 -16.47 93.62 40 0 -16.30 93.90 30 40 992 3.00 323 3 5 -16.47 93.62 TC 40 5 288
1999 SI WA 03:00:00 TS -16.35 93.53 1659 1659 P_____P_____P_ SH101999 -16.41 93.45 40 0 -16.23 93.70 30 36 993 323 -16.41 93.45 TC 40 6 291
1999 SI WA 04:00:00 TS -16.31 93.44 35 994 bom 1667 1667 P_____O_____P_ SH101999 -16.37 93.37 40 0 -16.20 93.60 30 35 994 3.00 323 3 5 -16.37 93.37 TC 40 5 288
1999 SI WA 06:00:00 TS -16.27 93.27 1676 1676 O_____P_____O_ jtwc_sh SH101999 -16.30 93.20 40 0 -16.20 93.40 30 31 995 287 -16.30 93.20 TC 40 5 285
1999 SI WA 07:00:00 TS -16.25 93.18 30 996 bom 1677 1677 P_____O_____P_ SH101999 -16.27 93.12 39 0 -16.20 93.30 20 30 996 2.50 269 3 5 -16.27 93.12 TC 39 5 289
1999 SI WA 09:00:00 TS -16.18 93.01 1694 1694 P_____P_____P_ SH101999 -16.21 92.96 37 0 -16.13 93.10 20 30 997 269 -16.21 92.96 TC 37 5 291
1999 SI WA 10:00:00 TS -16.15 92.92 30 998 bom 1696 1696 P_____O_____P_ SH101999 -16.17 92.87 36 0 -16.10 93.00 20 30 998 2.50 269 3 5 -16.17 92.87 TC 36 5 287
1999 SI WA 12:00:00 TS -16.10 92.74 1711 1711 O_____P_____O_ jtwc_sh SH101999 -16.10 92.70 35 0 -16.10 92.81 20 26 999 233 -16.10 92.70 TC 35 5 288
1999 SI WA 13:00:00 TS -16.07 92.65 25 1000 bom 1718 1710 P_____O_____P_ SH101999 -16.05 92.62 35 0 -16.10 92.70 20 25 1000 2.00 215 3 5 -16.05 92.62 TC 35 6 296
1999 SI WA 15:00:00 TS -15.97 92.45 1725 1716 P_____P_____P_ SH101999 -15.93 92.44 35 0 -16.03 92.45 20 25 1000 215 -15.93 92.44 TC 35 7 295
1999 SI WA 16:00:00 TS -15.92 92.33 25 1000 bom 1724 1724 P_____O_____P_ SH101999 -15.88 92.34 35 0 -16.00 92.30 20 25 1000 2.00 215 3 5 -15.88 92.34 TC 35 8 284
1999 SI WA 18:00:00 TS -15.87 92.03 1745 1745 O_____P_____O_ jtwc_sh SH101999 -15.80 92.10 35 0 -16.00 91.90 20 25 1001 215 -15.80 92.10 TC 35 9 278
1999 SI WA 19:00:00 TS -15.86 91.87 25 1002 bom 1752 1752 P_____O_____P_ SH101999 -15.79 91.95 33 -1 -16.00 91.70 20 25 1002 1.50 215 3 5 -15.79 91.95 TC 33 10 273
1999 SI WA 21:00:00 TS -15.84 91.53 1772 1772 P_____P_____P_ SH101999 -15.79 91.61 30 -1 -15.93 91.37 20 25 1002 215 -15.79 91.61 TC 30 10 273
1999 SI WA 22:00:00 TS -15.83 91.35 25 1002 bom 1785 1785 P_____O_____P_ SH101999 -15.80 91.42 28 -1 -15.90 91.20 20 25 1002 1.50 215 3 5 -15.80 91.42 TC 28 12 271
1999 SI WA 1998-12-28 00:00:00 TS -15.83 90.93 1806 1806 O_____P_____O_ jtwc_sh SH101999 -15.80 91.00 25 -1 -15.89 90.80 20 21 1003 179 -15.80 91.00 TC 25 12 272
1999 SI WA 01:00:00 TS -15.82 90.72 20 1004 bom 1817 1817 P_____O_____P_ SH101999 -15.78 90.76 25 -1 -15.90 90.60 20 20 1004 1.00 161 3 5 -15.78 90.76 TC 25 13 276
1999 SI WA 03:00:00 TS -15.76 90.26 1839 1839 P_____P_____P_ SH101999 -15.73 90.26 25 -1 -15.90 90.26 20 20 1004 125 -15.73 90.26 TC 25 13 278
1999 SI WA 04:00:00 TS -15.72 90.03 20 1004 bom 1847 1847 P_____O_____P_ SH101999 -15.69 90.02 25 -1 -15.90 90.10 20 20 1004 1.00 107 3 5 -15.69 90.02 TC 25 13 285
1999 SI MM 06:00:00 TS -15.60 89.60 1861 1858 O___________O_ jtwc_sh SH101999 -15.60 89.60 25 -1 20 -15.60 89.60 TC 25 10 292
1999 SI MM 09:00:00 TS -15.41 89.24 1867 1856 P___________P_ SH101999 -15.41 89.24 25 -1 -15.41 89.24 TC 25 7 305
1999 SI MM 12:00:00 TS -15.20 89.00 1862 1859 O___________O_ jtwc_sh SH101999 -15.20 89.00 25 -1 -15.20 89.00 TC 25 6 305
1999 SI MM 15:00:00 TS -15.04 88.70 1864 1864 P___________P_ SH101999 -15.04 88.70 25 -1 -15.04 88.70 TC 25 7 297
1999 SI MM 18:00:00 TS -14.90 88.40 1875 1873 O___________O_ jtwc_sh SH101999 -14.90 88.40 25 -1 -14.90 88.40 TC 25 7 298
1999 SI MM 21:00:00 TS -14.73 88.09 1878 1878 P___________P_ SH101999 -14.73 88.09 25 -1 -14.73 88.09 TC 25 7 297
1999 SI MM 1998-12-29 00:00:00 TS -14.60 87.80 1891 1891 O___________O_ jtwc_sh SH101999 -14.60 87.80 25 -1 -14.60 87.80 TC 25 5 289
1999 SI MM 03:00:00 TS -14.56 87.57 1905 1904 P___________P_ SH101999 -14.56 87.57 25 -1 -14.56 87.57 TC 25 5 282
1999 SI MM 06:00:00 TS -14.50 87.30 1918 1918 O___________O_ jtwc_sh SH101999 -14.50 87.30 25 -1 -14.50 87.30 TC 25 7 290
1999 SI MM 09:00:00 TS -14.33 86.92 1932 1931 P___________P_ SH101999 -14.32 86.91 25 -1 -14.34 86.93 TC 25 9 297
1999 SI MM 12:00:00 TS -14.10 86.50 1946 1946 O___________O_ jtwc_sh SH101999 -14.10 86.50 25 -1 -14.10 86.50 TC 25 9 299
1999 SI MM 15:00:00 NR -13.90 86.14 1962 1962 P_____________ SH101999 -13.90 86.14 25 -1 TC 8 300
1999 SI MM 18:00:00 NR -13.70 85.80 1971 1971 O_____________ jtwc_sh SH101999 -13.70 85.80 25 -1 7 303
1999 SI MM 21:00:00 NR -13.50 85.49 1980 1980 P_____________ SH101999 -13.50 85.49 25 -1 7 304
1999 SI MM 1998-12-30 00:00:00 NR -13.30 85.20 1991 1991 O_____________ jtwc_sh SH101999 -13.30 85.20 25 -1 7 305
1999 SI MM 03:00:00 NR -13.08 84.89 2002 2002 P_____________ SH101999 -13.08 84.89 25 -1 7 304
1999 SI MM 06:00:00 NR -12.90 84.60 2014 2014 O_____________ jtwc_sh SH101999 -12.90 84.60 25 -1 6 300
1999 SI MM 09:00:00 NR -12.78 84.36 2025 2025 P_____________ SH101999 -12.78 84.36 25 -1 5 292
1999 SI MM 12:00:00 NR -12.70 84.10 2044 2044 O_____________ jtwc_sh SH101999 -12.70 84.10 25 -1 6 287
1999 SI MM 15:00:00 NR -12.61 83.77 2064 2064 P_____________ SH101999 -12.61 83.77 25 -1 7 286
1999 SI MM 18:00:00 NR -12.50 83.40 2084 O_____________ jtwc_sh SH101999 -12.50 83.40 25 -1 8 286